Flight Track Log - Related Links

Times and Time Zones

All times are in EDT time to prevent confusion due to time zone crossing. See the EZY8474 flight status page for this flight to view local times or setup timezone preferences in your user account.

Time Position Orientation Groundspeed Altitude Reporting Facility
EDT Latitude Longitude Course Direction KTS MPH feet Rate Location/Type
Sun 09:40:28 AM 51.1036 -0.0285 171° South 261 300 5,800  Level FlightAware ADS-B
Sun 09:40:52 AM 51.0756 -0.0216 167° South 262 302 6,000 279 Climbing FlightAware ADS-B
Sun 09:41:11 AM 51.0542 -0.0139 167° South 266 306 6,000  Level FlightAware ADS-B
Sun 09:41:29 AM 51.0327 -0.0059 166° South 266 306 6,000 1,789 Level FlightAware ADS-B
Sun 09:47:30 AM 50.5245 0.1926 166° South 378 435 17,300 1,906 Climbing FlightAware ADS-B
Sun 09:48:12 AM 50.4516 0.2220 158° South 385 443 18,800 2,143 Climbing FlightAware ADS-B
Sun 09:49:08 AM 50.3578 0.2816 140° Southeast 395 455 20,800 2,156 Climbing FlightAware ADS-B
Sun 09:49:16 AM 50.3467 0.2963 135° Southeast 409 471 21,100 2,250 Climbing FlightAware ADS-B
Sun 09:56:32 AM 49.9270 0.9560 135° Southeast  Level Estimated
Sun 09:57:32 AM 49.8689 1.0459 135° Southeast  Level Estimated
Sun 09:58:32 AM 49.8108 1.1356 135° Southeast  Level Estimated
Sun 09:59:32 AM 49.7526 1.2251 135° Southeast  Level Estimated
Sun 10:00:32 AM 49.6944 1.3143 135° Southeast  Level Estimated
Sun 10:01:32 AM 49.6361 1.4033 135° Southeast  Level Estimated
Sun 10:02:32 AM 49.5777 1.4922 135° Southeast  Level Estimated
Sun 10:03:32 AM 49.5192 1.5808 136° Southeast  Level Estimated
Sun 10:04:32 AM 49.4607 1.6692 136° Southeast  Level Estimated
Sun 10:05:32 AM 49.4021 1.7574 136° Southeast  Level Estimated
Sun 10:06:32 AM 49.3434 1.8454 136° Southeast  Level Estimated
Sun 10:07:32 AM 49.2847 1.9331 136° Southeast  Level Estimated
Sun 10:08:32 AM 49.2259 2.0207 136° Southeast  Level Estimated
Sun 10:09:32 AM 49.1854 2.0808 136° Southeast  Level Estimated
Sun 10:10:32 AM 49.1449 2.1409 136° Southeast  Level Estimated
Sun 10:11:32 AM 49.1043 2.2008 136° Southeast  Level Estimated
Sun 10:12:32 AM 49.0637 2.2607 136° Southeast  Level Estimated
Sun 10:13:32 AM 49.0230 2.3204 136° Southeast  Level Estimated
Sun 10:14:32 AM 48.9824 2.3801 136° Southeast  Level Estimated
Sun 10:15:32 AM 48.9417 2.4397 136° Southeast  Level Estimated
Sun 10:16:32 AM 48.9010 2.4991 136° Southeast  Level Estimated
Sun 10:17:32 AM 48.8602 2.5585 136° Southeast  Level Estimated
Sun 10:18:32 AM 48.8194 2.6177 136° Southeast  Level Estimated
Sun 10:19:32 AM 48.7786 2.6769 136° Southeast  Level Estimated
Sun 10:20:32 AM 48.7378 2.7360 136° Southeast  Level Estimated
Sun 10:21:32 AM 48.6969 2.7950 136° Southeast  Level Estimated
Sun 10:22:32 AM 48.6560 2.8538 136° Southeast  Level Estimated
Sun 10:23:32 AM 48.6151 2.9126 137° Southeast  Level Estimated
Sun 10:24:32 AM 48.5741 2.9713 137° Southeast  Level Estimated
Sun 10:25:32 AM 48.5331 3.0299 137° Southeast  Level Estimated
Sun 10:26:32 AM 48.4921 3.0884 137° Southeast  Level Estimated
Sun 10:27:32 AM 48.4510 3.1468 137° Southeast  Level Estimated
Sun 10:28:32 AM 48.4100 3.2051 137° Southeast  Level Estimated
Sun 10:29:32 AM 48.3688 3.2634 137° Southeast  Level Estimated
Sun 10:30:32 AM 48.3277 3.3215 137° Southeast  Level Estimated
Sun 10:31:32 AM 48.2865 3.3795 137° Southeast  Level Estimated
Sun 10:32:32 AM 48.2453 3.4374 137° Southeast  Level Estimated
Sun 10:33:32 AM 48.2041 3.4953 137° Southeast  Level Estimated
Sun 10:34:32 AM 48.1628 3.5530 137° Southeast  Level Estimated
Sun 10:35:32 AM 48.1216 3.6107 137° Southeast  Level Estimated
Sun 10:36:32 AM 48.0802 3.6683 137° Southeast  Level Estimated
Sun 10:37:32 AM 48.0389 3.7257 137° Southeast  Level Estimated
Sun 10:38:32 AM 47.9975 3.7831 137° Southeast  Level Estimated
Sun 10:39:32 AM 47.9561 3.8404 137° Southeast  Level Estimated
Sun 10:40:32 AM 47.9147 3.8976 137° Southeast  Level Estimated
Sun 10:41:32 AM 47.8732 3.9547 137° Southeast  Level Estimated
Sun 10:42:32 AM 47.8317 4.0117 137° Southeast  Level Estimated
Sun 10:43:32 AM 47.7902 4.0686 137° Southeast  Level Estimated
Sun 10:44:32 AM 47.7487 4.1255 137° Southeast  Level Estimated
Sun 10:45:32 AM 47.7071 4.1822 137° Southeast  Level Estimated
Sun 10:46:32 AM 47.6655 4.2389 138° Southeast  Level Estimated
Sun 10:47:32 AM 47.6239 4.2954 138° Southeast  Level Estimated
Sun 10:48:32 AM 47.5822 4.3519 138° Southeast  Level Estimated
Sun 10:49:32 AM 47.5406 4.4083 138° Southeast  Level Estimated
Sun 10:50:32 AM 47.4988 4.4646 138° Southeast  Level Estimated
Sun 10:51:32 AM 47.4571 4.5208 138° Southeast  Level Estimated
Sun 10:52:32 AM 47.4153 4.5769 138° Southeast  Level Estimated
Sun 10:53:32 AM 47.3735 4.6329 138° Southeast  Level Estimated
Sun 10:54:32 AM 47.3317 4.6888 138° Southeast  Level Estimated
Sun 10:55:32 AM 47.2899 4.7447 138° Southeast  Level Estimated
Sun 10:56:32 AM 47.2480 4.8004 138° Southeast  Level Estimated
Sun 10:57:32 AM 47.2061 4.8561 138° Southeast  Level Estimated
Sun 10:58:32 AM 47.1642 4.9117 138° Southeast  Level Estimated
Sun 10:59:32 AM 47.1222 4.9672 138° Southeast  Level Estimated
Sun 11:00:32 AM 47.0802 5.0226 138° Southeast  Level Estimated
Sun 11:01:32 AM 47.0382 5.0779 138° Southeast  Level Estimated
Sun 11:02:32 AM 46.9962 5.1332 138° Southeast  Level Estimated
Sun 11:03:32 AM 46.9541 5.1883 138° Southeast  Level Estimated
Sun 11:04:32 AM 46.9120 5.2434 138° Southeast  Level Estimated
Sun 11:05:32 AM 46.8699 5.2983 138° Southeast  Level Estimated
Sun 11:06:32 AM 46.8278 5.3532 138° Southeast  Level Estimated
Sun 11:07:32 AM 46.7856 5.4080 138° Southeast  Level Estimated
Sun 11:08:32 AM 46.7434 5.4627 138° Southeast  Level Estimated
Sun 11:09:32 AM 46.7012 5.5174 138° Southeast  Level Estimated
Sun 11:10:32 AM 46.6590 5.5719 138° Southeast  Level Estimated
Sun 11:11:32 AM 46.6167 5.6264 139° Southeast  Level Estimated
Sun 11:12:32 AM 46.5744 5.6807 139° Southeast  Level Estimated
Sun 11:13:32 AM 46.5321 5.7350 139° Southeast  Level Estimated
Sun 11:14:32 AM 46.4897 5.7892 139° Southeast  Level Estimated
Sun 11:15:32 AM 46.4473 5.8434 139° Southeast  Level Estimated
Sun 11:16:32 AM 46.4049 5.8974 139° Southeast  Level Estimated
Sun 11:17:32 AM 46.3625 5.9514 139° Southeast  Level Estimated
Sun 11:18:32 AM 46.3201 6.0052 139° Southeast  Level Estimated
Sun 11:19:32 AM 46.2776 6.0590 139° Southeast  Level Estimated
Sun 11:20:32 AM 46.2351 6.1127 319° Northwest  Level Estimated
Sun 11:21:32 AM 46.2776 6.0591 139° Southeast  Level Estimated
Sun 11:22:32 AM 46.2351 6.1127 319° Northwest  Level Estimated
Sun 11:23:32 AM 46.2776 6.0591 139° Southeast  Level Estimated
Sun 11:24:32 AM 46.2351 6.1127 319° Northwest  Level Estimated
Sun 11:25:32 AM 46.2776 6.0591 139° Southeast  Level Estimated
Sun 11:26:32 AM 46.2351 6.1127 319° Northwest  Level Estimated
Sun 11:27:32 AM 46.2776 6.0591 139° Southeast  Level Estimated
Sun 11:28:32 AM 46.2351 6.1127 319° Northwest  Level Estimated
Sun 11:29:32 AM 46.2776 6.0591 139° Southeast  Level Estimated
Sun 11:30:32 AM 46.2351 6.1127 319° Northwest  Level Estimated
Sun 11:31:32 AM 46.2776 6.0591 139° Southeast  Level Estimated
Sun 11:32:32 AM 46.2351 6.1127 319° Northwest  Level Estimated
Sun 11:33:32 AM 46.2776 6.0591 139° Southeast  Level Estimated
Sun 11:34:32 AM 46.2351 6.1127 319° Northwest  Level Estimated
Sun 11:35:32 AM 46.2776 6.0591 139° Southeast  Level Estimated
Sun 11:36:32 AM 46.2351 6.1127 319° Northwest  Level Estimated
Sun 11:37:32 AM 46.2776 6.0591 139° Southeast  Level Estimated
Sun 11:38:32 AM 46.2351 6.1127 319° Northwest  Level Estimated
Sun 11:39:32 AM 46.2776 6.0591 139° Southeast  Level Estimated
Sun 11:40:32 AM 46.2351 6.1127 319° Northwest  Level Estimated
Sun 11:41:32 AM 46.2776 6.0591 139° Southeast  Level Estimated
Sun 11:42:32 AM 46.2351 6.1127 319° Northwest  Level Estimated
Sun 11:43:32 AM 46.2776 6.0591 139° Southeast  Level Estimated
Sun 11:44:32 AM 46.2351 6.1127 319° Northwest  Level Estimated
Sun 11:45:32 AM 46.2776 6.0591 139° Southeast  Level Estimated
Sun 11:46:32 AM 46.2351 6.1127 319° Northwest  Level Estimated
Sun 11:47:32 AM 46.2776 6.0591 139° Southeast  Level Estimated
Sun 11:48:32 AM 46.2351 6.1127 319° Northwest  Level Estimated
Sun 11:49:32 AM 46.2776 6.0591 139° Southeast  Level Estimated
Sun 11:50:32 AM 46.2351 6.1127 319° Northwest  Level Estimated
Sun 11:51:32 AM 46.2776 6.0591 139° Southeast  Level Estimated
Sun 11:52:32 AM 46.2351 6.1127 319° Northwest  Level Estimated
Sun 11:53:32 AM 46.2776 6.0591 139° Southeast  Level Estimated
Sun 11:54:32 AM 46.2351 6.1127 319° Northwest  Level Estimated
Sun 11:55:32 AM 46.2776 6.0591 139° Southeast  Level Estimated
Sun 11:56:32 AM 46.2351 6.1127 319° Northwest  Level Estimated
Sun 11:57:32 AM 46.2776 6.0591 139° Southeast  Level Estimated
Sun 11:58:32 AM 46.2351 6.1127 319° Northwest  Level Estimated
Sun 11:59:32 AM 46.2776 6.0591 139° Southeast  Level Estimated
Sun 12:00:32 PM 46.2351 6.1127 319° Northwest  Level Estimated
Sun 12:01:32 PM 46.2776 6.0591 139° Southeast  Level Estimated
Sun 12:02:32 PM 46.2351 6.1127 319° Northwest  Level Estimated
Sun 12:03:32 PM 46.2776 6.0591 139° Southeast  Level Estimated
Sun 12:04:32 PM 46.2351 6.1127 319° Northwest  Level Estimated
Sun 12:05:32 PM 46.2776 6.0591 139° Southeast  Level Estimated
Sun 12:06:32 PM 46.2351 6.1127 319° Northwest  Level Estimated
Sun 12:07:32 PM 46.2776 6.0591 139° Southeast  Level Estimated
Sun 12:08:32 PM 46.2351 6.1127 319° Northwest  Level Estimated
Sun 12:09:32 PM 46.2776 6.0591 139° Southeast  Level Estimated
Sun 12:10:32 PM 46.2351 6.1127 319° Northwest  Level Estimated
Sun 12:11:32 PM 46.2776 6.0591 139° Southeast  Level Estimated
Sun 12:12:32 PM 46.2351 6.1127 319° Northwest  Level Estimated
Sun 12:13:32 PM 46.2776 6.0591 139° Southeast  Level Estimated
Sun 12:14:32 PM 46.2351 6.1127 319° Northwest  Level Estimated
Sun 12:15:32 PM 46.2776 6.0591 139° Southeast  Level Estimated
Sun 12:16:32 PM 46.2351 6.1127 319° Northwest  Level Estimated
Sun 12:17:32 PM 46.2776 6.0591 139° Southeast  Level Estimated
Sun 12:18:32 PM 46.2351 6.1127 319° Northwest  Level Estimated
Sun 12:19:32 PM 46.2776 6.0591 139° Southeast  Level Estimated
Sun 12:20:32 PM 46.2351 6.1127 319° Northwest  Level Estimated
Sun 12:21:32 PM 46.2776 6.0591 139° Southeast  Level Estimated
Sun 12:22:32 PM 46.2351 6.1127 319° Northwest  Level Estimated
Sun 12:23:32 PM 46.2776 6.0591 139° Southeast  Level Estimated
Sun 12:24:32 PM 46.2351 6.1127 319° Northwest  Level Estimated
Sun 12:25:32 PM 46.2776 6.0591 319° Northwest  Level Estimated

Login

Don't have an account? Register now (free) for customized features, flight alerts, and more!